sensor_id;sensor_type;location;lat;lon;timestamp;temperature;humidity
13976;DHT22;7062;49.792;9.946;2023-03-31T00:01:32;11.60;99.90
13976;DHT22;7062;49.792;9.946;2023-03-31T00:04:01;11.60;99.90
13976;DHT22;7062;49.792;9.946;2023-03-31T00:06:32;11.70;99.90
13976;DHT22;7062;49.792;9.946;2023-03-31T00:09:03;11.70;99.90
13976;DHT22;7062;49.792;9.946;2023-03-31T00:11:29;11.70;99.90
13976;DHT22;7062;49.792;9.946;2023-03-31T00:13:55;11.80;99.90
13976;DHT22;7062;49.792;9.946;2023-03-31T00:16:21;11.80;99.90
13976;DHT22;7062;49.792;9.946;2023-03-31T00:18:47;11.80;99.90
13976;DHT22;7062;49.792;9.946;2023-03-31T00:21:20;11.80;99.90
13976;DHT22;7062;49.792;9.946;2023-03-31T00:23:57;11.80;99.90
13976;DHT22;7062;49.792;9.946;2023-03-31T00:26:24;11.80;99.90
13976;DHT22;7062;49.792;9.946;2023-03-31T00:28:51;11.80;99.90
13976;DHT22;7062;49.792;9.946;2023-03-31T00:31:18;11.80;99.90
13976;DHT22;7062;49.792;9.946;2023-03-31T00:33:44;11.80;99.90
13976;DHT22;7062;49.792;9.946;2023-03-31T00:36:09;11.80;99.90
13976;DHT22;7062;49.792;9.946;2023-03-31T00:38:35;11.80;99.90
13976;DHT22;7062;49.792;9.946;2023-03-31T00:41:01;11.70;99.90
13976;DHT22;7062;49.792;9.946;2023-03-31T00:43:33;11.70;99.90
13976;DHT22;7062;49.792;9.946;2023-03-31T00:46:15;11.80;99.90
13976;DHT22;7062;49.792;9.946;2023-03-31T00:48:52;11.80;99.90
13976;DHT22;7062;49.792;9.946;2023-03-31T00:51:20;11.80;99.90
13976;DHT22;7062;49.792;9.946;2023-03-31T00:53:52;11.90;99.90
13976;DHT22;7062;49.792;9.946;2023-03-31T00:56:25;11.80;99.90
13976;DHT22;7062;49.792;9.946;2023-03-31T00:58:52;11.80;99.90
13976;DHT22;7062;49.792;9.946;2023-03-31T01:01:22;11.80;99.90
13976;DHT22;7062;49.792;9.946;2023-03-31T01:03:51;11.70;99.90
13976;DHT22;7062;49.792;9.946;2023-03-31T01:06:18;11.70;99.90
13976;DHT22;7062;49.792;9.946;2023-03-31T01:08:49;11.70;99.90
13976;DHT22;7062;49.792;9.946;2023-03-31T01:11:18;11.70;99.90
13976;DHT22;7062;49.792;9.946;2023-03-31T01:13:45;11.60;99.90
13976;DHT22;7062;49.792;9.946;2023-03-31T01:16:15;11.60;99.90
13976;DHT22;7062;49.792;9.946;2023-03-31T01:18:42;11.60;99.90
13976;DHT22;7062;49.792;9.946;2023-03-31T01:24:17;11.50;99.90
13976;DHT22;7062;49.792;9.946;2023-03-31T01:27:13;11.50;99.90
13976;DHT22;7062;49.792;9.946;2023-03-31T01:36:01;11.40;99.90
13976;DHT22;7062;49.792;9.946;2023-03-31T01:42:08;11.30;99.90
13976;DHT22;7062;49.792;9.946;2023-03-31T01:48:18;11.20;99.90
13976;DHT22;7062;49.792;9.946;2023-03-31T01:50:56;11.20;99.90
13976;DHT22;7062;49.792;9.946;2023-03-31T01:56:36;11.20;99.90
13976;DHT22;7062;49.792;9.946;2023-03-31T02:01:46;11.20;99.90
13976;DHT22;7062;49.792;9.946;2023-03-31T02:04:20;11.20;99.90
13976;DHT22;7062;49.792;9.946;2023-03-31T02:06:51;11.20;99.90
13976;DHT22;7062;49.792;9.946;2023-03-31T02:09:24;11.20;99.90
13976;DHT22;7062;49.792;9.946;2023-03-31T02:11:52;11.20;99.90
13976;DHT22;7062;49.792;9.946;2023-03-31T02:14:22;11.20;99.90
13976;DHT22;7062;49.792;9.946;2023-03-31T02:16:53;11.20;99.90
13976;DHT22;7062;49.792;9.946;2023-03-31T02:19:25;11.20;99.90
13976;DHT22;7062;49.792;9.946;2023-03-31T02:21:52;11.20;99.90
13976;DHT22;7062;49.792;9.946;2023-03-31T02:24:22;11.20;99.90
13976;DHT22;7062;49.792;9.946;2023-03-31T02:27:18;11.20;99.90
13976;DHT22;7062;49.792;9.946;2023-03-31T02:29:45;11.30;99.90
13976;DHT22;7062;49.792;9.946;2023-03-31T02:32:22;11.30;99.90
13976;DHT22;7062;49.792;9.946;2023-03-31T02:34:49;11.40;99.90
13976;DHT22;7062;49.792;9.946;2023-03-31T02:37:15;11.50;99.90
13976;DHT22;7062;49.792;9.946;2023-03-31T02:39:43;11.50;99.90
13976;DHT22;7062;49.792;9.946;2023-03-31T02:42:10;11.40;99.90
13976;DHT22;7062;49.792;9.946;2023-03-31T02:44:37;11.40;99.90
13976;DHT22;7062;49.792;9.946;2023-03-31T02:47:06;11.50;99.90
13976;DHT22;7062;49.792;9.946;2023-03-31T02:49:34;11.50;99.90
13976;DHT22;7062;49.792;9.946;2023-03-31T03:00:19;11.60;99.90
13976;DHT22;7062;49.792;9.946;2023-03-31T03:13:52;11.90;99.90
13976;DHT22;7062;49.792;9.946;2023-03-31T03:16:29;11.90;99.90
13976;DHT22;7062;49.792;9.946;2023-03-31T03:19:02;11.90;99.90
13976;DHT22;7062;49.792;9.946;2023-03-31T03:21:30;11.90;99.90
13976;DHT22;7062;49.792;9.946;2023-03-31T03:23:57;11.90;99.90
13976;DHT22;7062;49.792;9.946;2023-03-31T03:26:23;11.90;99.90
13976;DHT22;7062;49.792;9.946;2023-03-31T03:28:53;11.90;99.90
13976;DHT22;7062;49.792;9.946;2023-03-31T03:31:20;12.00;99.90
13976;DHT22;7062;49.792;9.946;2023-03-31T03:33:48;12.00;99.90
13976;DHT22;7062;49.792;9.946;2023-03-31T03:36:14;12.00;99.90
13976;DHT22;7062;49.792;9.946;2023-03-31T03:38:40;12.00;99.90
13976;DHT22;7062;49.792;9.946;2023-03-31T03:41:06;12.00;99.90
13976;DHT22;7062;49.792;9.946;2023-03-31T03:43:31;11.90;99.90
13976;DHT22;7062;49.792;9.946;2023-03-31T03:45:57;11.90;99.90
13976;DHT22;7062;49.792;9.946;2023-03-31T03:48:23;11.80;99.90
13976;DHT22;7062;49.792;9.946;2023-03-31T03:50:48;11.70;99.90
13976;DHT22;7062;49.792;9.946;2023-03-31T03:53:14;11.60;99.90
13976;DHT22;7062;49.792;9.946;2023-03-31T03:55:40;11.50;99.90
13976;DHT22;7062;49.792;9.946;2023-03-31T03:58:06;11.50;99.90
13976;DHT22;7062;49.792;9.946;2023-03-31T04:00:32;11.40;99.90
13976;DHT22;7062;49.792;9.946;2023-03-31T04:02:58;11.40;99.90
13976;DHT22;7062;49.792;9.946;2023-03-31T04:05:24;11.40;99.90
13976;DHT22;7062;49.792;9.946;2023-03-31T04:07:49;11.40;99.90
13976;DHT22;7062;49.792;9.946;2023-03-31T04:10:15;11.30;99.90
13976;DHT22;7062;49.792;9.946;2023-03-31T04:12:41;11.30;99.90
13976;DHT22;7062;49.792;9.946;2023-03-31T04:15:07;11.40;99.90
13976;DHT22;7062;49.792;9.946;2023-03-31T04:17:32;11.30;99.90
13976;DHT22;7062;49.792;9.946;2023-03-31T04:20:06;11.40;99.90
13976;DHT22;7062;49.792;9.946;2023-03-31T04:22:35;11.40;99.90
13976;DHT22;7062;49.792;9.946;2023-03-31T04:25:09;11.30;99.90
13976;DHT22;7062;49.792;9.946;2023-03-31T04:27:48;11.40;99.90
13976;DHT22;7062;49.792;9.946;2023-03-31T04:30:24;11.40;99.90
13976;DHT22;7062;49.792;9.946;2023-03-31T04:32:56;11.30;99.90
13976;DHT22;7062;49.792;9.946;2023-03-31T04:35:24;11.30;99.90
13976;DHT22;7062;49.792;9.946;2023-03-31T04:37:51;11.20;99.90
13976;DHT22;7062;49.792;9.946;2023-03-31T04:40:23;11.20;99.90
13976;DHT22;7062;49.792;9.946;2023-03-31T04:42:49;11.20;99.90
13976;DHT22;7062;49.792;9.946;2023-03-31T04:45:16;11.20;99.90
13976;DHT22;7062;49.792;9.946;2023-03-31T04:47:41;11.30;99.90
13976;DHT22;7062;49.792;9.946;2023-03-31T04:50:08;11.30;99.90
13976;DHT22;7062;49.792;9.946;2023-03-31T04:52:35;11.30;99.90
13976;DHT22;7062;49.792;9.946;2023-03-31T04:55:01;11.30;99.90
13976;DHT22;7062;49.792;9.946;2023-03-31T04:57:26;11.30;99.90
13976;DHT22;7062;49.792;9.946;2023-03-31T04:59:52;11.40;99.90
13976;DHT22;7062;49.792;9.946;2023-03-31T05:02:18;11.30;99.90
13976;DHT22;7062;49.792;9.946;2023-03-31T05:04:51;11.30;99.90
13976;DHT22;7062;49.792;9.946;2023-03-31T05:07:17;11.30;99.90
13976;DHT22;7062;49.792;9.946;2023-03-31T05:09:44;11.20;99.90
13976;DHT22;7062;49.792;9.946;2023-03-31T05:12:10;11.20;99.90
13976;DHT22;7062;49.792;9.946;2023-03-31T05:14:35;11.20;99.90
13976;DHT22;7062;49.792;9.946;2023-03-31T05:17:01;11.20;99.90
13976;DHT22;7062;49.792;9.946;2023-03-31T05:19:26;11.20;99.90
13976;DHT22;7062;49.792;9.946;2023-03-31T05:21:52;11.10;99.90
13976;DHT22;7062;49.792;9.946;2023-03-31T05:24:18;11.10;99.90
13976;DHT22;7062;49.792;9.946;2023-03-31T05:26:43;11.20;99.90
13976;DHT22;7062;49.792;9.946;2023-03-31T05:29:17;11.10;99.90
13976;DHT22;7062;49.792;9.946;2023-03-31T05:31:43;11.20;99.90
13976;DHT22;7062;49.792;9.946;2023-03-31T05:34:10;11.10;99.90
13976;DHT22;7062;49.792;9.946;2023-03-31T05:36:35;11.20;99.90
13976;DHT22;7062;49.792;9.946;2023-03-31T05:39:03;11.20;99.90
13976;DHT22;7062;49.792;9.946;2023-03-31T05:41:29;11.20;99.90
13976;DHT22;7062;49.792;9.946;2023-03-31T05:43:54;11.20;99.90
13976;DHT22;7062;49.792;9.946;2023-03-31T05:46:20;11.20;99.90
13976;DHT22;7062;49.792;9.946;2023-03-31T05:48:46;11.20;99.90
13976;DHT22;7062;49.792;9.946;2023-03-31T05:51:12;11.20;99.90
13976;DHT22;7062;49.792;9.946;2023-03-31T05:53:37;11.10;99.90
13976;DHT22;7062;49.792;9.946;2023-03-31T05:56:04;11.00;99.90
13976;DHT22;7062;49.792;9.946;2023-03-31T05:58:33;11.00;99.90
13976;DHT22;7062;49.792;9.946;2023-03-31T06:01:10;10.90;99.90
13976;DHT22;7062;49.792;9.946;2023-03-31T06:03:38;10.90;99.90
13976;DHT22;7062;49.792;9.946;2023-03-31T06:06:07;10.80;99.90
13976;DHT22;7062;49.792;9.946;2023-03-31T06:08:35;10.90;99.90
13976;DHT22;7062;49.792;9.946;2023-03-31T06:11:10;10.90;99.90
13976;DHT22;7062;49.792;9.946;2023-03-31T06:13:36;10.90;99.90
13976;DHT22;7062;49.792;9.946;2023-03-31T06:16:03;10.90;99.90
13976;DHT22;7062;49.792;9.946;2023-03-31T06:18:30;10.90;99.90
13976;DHT22;7062;49.792;9.946;2023-03-31T06:20:56;10.90;99.90
13976;DHT22;7062;49.792;9.946;2023-03-31T06:23:23;10.80;99.90
13976;DHT22;7062;49.792;9.946;2023-03-31T06:25:49;10.80;99.90
13976;DHT22;7062;49.792;9.946;2023-03-31T06:28:14;10.90;99.90
13976;DHT22;7062;49.792;9.946;2023-03-31T06:30:40;11.00;99.90
13976;DHT22;7062;49.792;9.946;2023-03-31T06:33:06;11.00;99.90
13976;DHT22;7062;49.792;9.946;2023-03-31T06:35:32;11.00;99.90
13976;DHT22;7062;49.792;9.946;2023-03-31T06:37:58;11.00;99.90
13976;DHT22;7062;49.792;9.946;2023-03-31T06:40:23;10.90;99.90
13976;DHT22;7062;49.792;9.946;2023-03-31T06:42:49;10.90;99.90
13976;DHT22;7062;49.792;9.946;2023-03-31T06:45:15;10.90;99.90
13976;DHT22;7062;49.792;9.946;2023-03-31T06:47:41;10.90;99.90
13976;DHT22;7062;49.792;9.946;2023-03-31T06:50:07;10.90;99.90
13976;DHT22;7062;49.792;9.946;2023-03-31T06:52:34;11.00;99.90
13976;DHT22;7062;49.792;9.946;2023-03-31T06:55:00;11.10;99.90
13976;DHT22;7062;49.792;9.946;2023-03-31T06:57:26;11.10;99.90
13976;DHT22;7062;49.792;9.946;2023-03-31T06:59:52;11.00;99.90
13976;DHT22;7062;49.792;9.946;2023-03-31T07:02:18;11.10;99.90
13976;DHT22;7062;49.792;9.946;2023-03-31T07:04:44;11.00;99.90
13976;DHT22;7062;49.792;9.946;2023-03-31T07:07:09;11.00;99.90
13976;DHT22;7062;49.792;9.946;2023-03-31T07:09:35;10.90;99.90
13976;DHT22;7062;49.792;9.946;2023-03-31T07:12:01;11.00;99.90
13976;DHT22;7062;49.792;9.946;2023-03-31T07:14:32;11.00;99.90
13976;DHT22;7062;49.792;9.946;2023-03-31T07:16:58;11.00;99.90
13976;DHT22;7062;49.792;9.946;2023-03-31T07:19:24;11.20;99.90
13976;DHT22;7062;49.792;9.946;2023-03-31T07:21:49;11.20;99.90
13976;DHT22;7062;49.792;9.946;2023-03-31T07:24:16;11.20;99.90
13976;DHT22;7062;49.792;9.946;2023-03-31T07:26:42;11.20;99.90
13976;DHT22;7062;49.792;9.946;2023-03-31T07:29:07;11.10;99.90
13976;DHT22;7062;49.792;9.946;2023-03-31T07:31:33;11.00;99.90
13976;DHT22;7062;49.792;9.946;2023-03-31T07:34:01;11.00;99.90
13976;DHT22;7062;49.792;9.946;2023-03-31T07:36:27;10.90;99.90
13976;DHT22;7062;49.792;9.946;2023-03-31T07:38:53;10.90;99.90
13976;DHT22;7062;49.792;9.946;2023-03-31T07:41:19;10.90;99.90
13976;DHT22;7062;49.792;9.946;2023-03-31T07:43:45;11.00;99.90
13976;DHT22;7062;49.792;9.946;2023-03-31T07:46:23;11.00;99.90
13976;DHT22;7062;49.792;9.946;2023-03-31T07:48:49;11.00;99.90
13976;DHT22;7062;49.792;9.946;2023-03-31T07:51:18;11.00;99.90
13976;DHT22;7062;49.792;9.946;2023-03-31T07:53:44;11.00;99.90
13976;DHT22;7062;49.792;9.946;2023-03-31T07:56:10;11.00;99.90
13976;DHT22;7062;49.792;9.946;2023-03-31T07:58:36;11.00;99.90
13976;DHT22;7062;49.792;9.946;2023-03-31T08:01:01;11.10;99.90
13976;DHT22;7062;49.792;9.946;2023-03-31T08:03:27;11.00;99.90
13976;DHT22;7062;49.792;9.946;2023-03-31T08:05:54;11.10;99.90
13976;DHT22;7062;49.792;9.946;2023-03-31T08:08:20;10.30;99.90
13976;DHT22;7062;49.792;9.946;2023-03-31T08:10:47;11.20;99.90
13976;DHT22;7062;49.792;9.946;2023-03-31T08:13:13;11.30;99.90
13976;DHT22;7062;49.792;9.946;2023-03-31T08:15:38;11.20;99.90
13976;DHT22;7062;49.792;9.946;2023-03-31T08:18:04;11.30;99.90
13976;DHT22;7062;49.792;9.946;2023-03-31T08:20:30;11.40;99.90
13976;DHT22;7062;49.792;9.946;2023-03-31T08:22:56;11.40;99.90
13976;DHT22;7062;49.792;9.946;2023-03-31T08:25:22;11.50;99.90
13976;DHT22;7062;49.792;9.946;2023-03-31T08:27:48;11.40;99.90
13976;DHT22;7062;49.792;9.946;2023-03-31T08:30:18;11.30;99.90
13976;DHT22;7062;49.792;9.946;2023-03-31T08:32:44;11.30;99.90
13976;DHT22;7062;49.792;9.946;2023-03-31T08:35:10;11.30;99.90
13976;DHT22;7062;49.792;9.946;2023-03-31T08:37:36;11.30;99.90
13976;DHT22;7062;49.792;9.946;2023-03-31T08:40:04;11.30;99.90
13976;DHT22;7062;49.792;9.946;2023-03-31T08:45:26;11.50;99.90
13976;DHT22;7062;49.792;9.946;2023-03-31T08:50:49;11.70;99.90
13976;DHT22;7062;49.792;9.946;2023-03-31T08:53:28;11.80;99.90
13976;DHT22;7062;49.792;9.946;2023-03-31T08:55:55;12.00;99.90
13976;DHT22;7062;49.792;9.946;2023-03-31T08:58:44;12.10;99.90
13976;DHT22;7062;49.792;9.946;2023-03-31T09:03:54;12.50;99.90
13976;DHT22;7062;49.792;9.946;2023-03-31T09:09:05;13.30;99.90
13976;DHT22;7062;49.792;9.946;2023-03-31T09:11:53;13.40;99.90
13976;DHT22;7062;49.792;9.946;2023-03-31T09:14:52;13.80;99.90
13976;DHT22;7062;49.792;9.946;2023-03-31T09:19:58;12.70;99.90
13976;DHT22;7062;49.792;9.946;2023-03-31T09:22:30;11.80;99.90
13976;DHT22;7062;49.792;9.946;2023-03-31T09:27:30;11.40;99.90
13976;DHT22;7062;49.792;9.946;2023-03-31T09:32:57;11.80;99.90
13976;DHT22;7062;49.792;9.946;2023-03-31T09:35:27;12.00;99.90
13976;DHT22;7062;49.792;9.946;2023-03-31T09:37:58;12.10;99.90
13976;DHT22;7062;49.792;9.946;2023-03-31T09:40:26;11.80;99.90
13976;DHT22;7062;49.792;9.946;2023-03-31T09:43:05;11.60;99.90
13976;DHT22;7062;49.792;9.946;2023-03-31T09:45:33;11.50;99.90
13976;DHT22;7062;49.792;9.946;2023-03-31T09:48:13;11.40;99.90
13976;DHT22;7062;49.792;9.946;2023-03-31T09:50:58;11.20;99.90
13976;DHT22;7062;49.792;9.946;2023-03-31T09:56:33;11.00;99.90
13976;DHT22;7062;49.792;9.946;2023-03-31T09:59:02;10.80;99.90
13976;DHT22;7062;49.792;9.946;2023-03-31T10:01:28;10.80;99.90
13976;DHT22;7062;49.792;9.946;2023-03-31T10:03:55;10.90;99.90
13976;DHT22;7062;49.792;9.946;2023-03-31T10:06:23;10.80;99.90
13976;DHT22;7062;49.792;9.946;2023-03-31T10:08:56;10.90;99.90
13976;DHT22;7062;49.792;9.946;2023-03-31T10:11:24;10.90;99.90
13976;DHT22;7062;49.792;9.946;2023-03-31T10:16:31;10.90;99.90
13976;DHT22;7062;49.792;9.946;2023-03-31T10:19:34;10.80;99.90
13976;DHT22;7062;49.792;9.946;2023-03-31T10:22:13;10.80;99.90
13976;DHT22;7062;49.792;9.946;2023-03-31T10:24:42;10.80;99.90
13976;DHT22;7062;49.792;9.946;2023-03-31T10:27:23;10.90;99.90
13976;DHT22;7062;49.792;9.946;2023-03-31T10:30:11;11.00;99.90
13976;DHT22;7062;49.792;9.946;2023-03-31T10:32:40;11.00;99.90
13976;DHT22;7062;49.792;9.946;2023-03-31T10:35:31;11.00;99.90
13976;DHT22;7062;49.792;9.946;2023-03-31T10:38:01;11.10;99.90
13976;DHT22;7062;49.792;9.946;2023-03-31T10:40:30;11.00;99.90
13976;DHT22;7062;49.792;9.946;2023-03-31T10:43:04;10.90;99.90
13976;DHT22;7062;49.792;9.946;2023-03-31T10:45:43;10.70;99.90
13976;DHT22;7062;49.792;9.946;2023-03-31T10:48:31;10.60;99.90
13976;DHT22;7062;49.792;9.946;2023-03-31T10:50:59;10.60;99.90
13976;DHT22;7062;49.792;9.946;2023-03-31T10:53:26;10.70;99.90
13976;DHT22;7062;49.792;9.946;2023-03-31T10:56:04;10.70;99.90
13976;DHT22;7062;49.792;9.946;2023-03-31T11:01:13;10.40;99.90
13976;DHT22;7062;49.792;9.946;2023-03-31T11:07:01;10.10;99.90
13976;DHT22;7062;49.792;9.946;2023-03-31T11:09:54;10.10;99.90
13976;DHT22;7062;49.792;9.946;2023-03-31T11:12:40;10.00;99.90
13976;DHT22;7062;49.792;9.946;2023-03-31T11:15:23;10.00;99.90
13976;DHT22;7062;49.792;9.946;2023-03-31T11:17:56;10.20;99.90
13976;DHT22;7062;49.792;9.946;2023-03-31T11:26:04;10.70;99.90
13976;DHT22;7062;49.792;9.946;2023-03-31T11:34:15;11.00;99.90
13976;DHT22;7062;49.792;9.946;2023-03-31T11:40:00;11.80;99.90
13976;DHT22;7062;49.792;9.946;2023-03-31T11:45:55;16.30;99.90
13976;DHT22;7062;49.792;9.946;2023-03-31T11:51:04;15.10;99.90
13976;DHT22;7062;49.792;9.946;2023-03-31T11:53:34;14.00;99.90
13976;DHT22;7062;49.792;9.946;2023-03-31T11:56:02;13.70;99.90
13976;DHT22;7062;49.792;9.946;2023-03-31T12:01:14;13.90;99.90
13976;DHT22;7062;49.792;9.946;2023-03-31T12:04:02;13.60;99.90
13976;DHT22;7062;49.792;9.946;2023-03-31T12:06:32;13.10;99.90
13976;DHT22;7062;49.792;9.946;2023-03-31T12:14:30;12.40;99.90
13976;DHT22;7062;49.792;9.946;2023-03-31T12:17:14;12.20;99.90
13976;DHT22;7062;49.792;9.946;2023-03-31T12:19:46;12.10;99.90
13976;DHT22;7062;49.792;9.946;2023-03-31T12:22:21;12.50;99.90
13976;DHT22;7062;49.792;9.946;2023-03-31T12:24:48;13.70;99.90
13976;DHT22;7062;49.792;9.946;2023-03-31T12:32:31;16.40;99.90
13976;DHT22;7062;49.792;9.946;2023-03-31T12:35:04;16.30;99.90
13976;DHT22;7062;49.792;9.946;2023-03-31T12:40:36;14.00;99.90
13976;DHT22;7062;49.792;9.946;2023-03-31T12:57:27;17.90;99.90
13976;DHT22;7062;49.792;9.946;2023-03-31T13:02:38;18.50;99.90
13976;DHT22;7062;49.792;9.946;2023-03-31T13:08:04;17.50;99.90
13976;DHT22;7062;49.792;9.946;2023-03-31T13:10:32;17.50;99.90
13976;DHT22;7062;49.792;9.946;2023-03-31T13:13:13;17.50;99.90
13976;DHT22;7062;49.792;9.946;2023-03-31T13:15:39;17.30;99.90
13976;DHT22;7062;49.792;9.946;2023-03-31T13:18:06;17.40;99.90
13976;DHT22;7062;49.792;9.946;2023-03-31T13:20:37;17.80;99.90
13976;DHT22;7062;49.792;9.946;2023-03-31T13:23:19;17.00;99.90
13976;DHT22;7062;49.792;9.946;2023-03-31T13:25:55;16.50;99.90
13976;DHT22;7062;49.792;9.946;2023-03-31T13:31:13;16.30;99.90
13976;DHT22;7062;49.792;9.946;2023-03-31T13:34:00;15.40;99.90
13976;DHT22;7062;49.792;9.946;2023-03-31T13:39:10;14.80;99.90
13976;DHT22;7062;49.792;9.946;2023-03-31T13:44:54;17.60;99.90
13976;DHT22;7062;49.792;9.946;2023-03-31T13:58:34;19.30;99.90
13976;DHT22;7062;49.792;9.946;2023-03-31T14:04:29;17.10;99.90
13976;DHT22;7062;49.792;9.946;2023-03-31T14:07:07;16.00;99.90
13976;DHT22;7062;49.792;9.946;2023-03-31T14:09:41;15.50;99.90
13976;DHT22;7062;49.792;9.946;2023-03-31T14:14:57;16.40;99.90
13976;DHT22;7062;49.792;9.946;2023-03-31T14:17:33;16.70;99.90
13976;DHT22;7062;49.792;9.946;2023-03-31T14:20:06;16.60;99.90
13976;DHT22;7062;49.792;9.946;2023-03-31T14:26:08;17.70;99.90
13976;DHT22;7062;49.792;9.946;2023-03-31T14:28:50;18.90;99.90
13976;DHT22;7062;49.792;9.946;2023-03-31T14:36:41;19.00;99.90
13976;DHT22;7062;49.792;9.946;2023-03-31T14:39:14;18.70;99.90
13976;DHT22;7062;49.792;9.946;2023-03-31T14:41:40;17.00;99.90
13976;DHT22;7062;49.792;9.946;2023-03-31T14:44:13;16.20;99.90
13976;DHT22;7062;49.792;9.946;2023-03-31T14:46:40;15.80;99.90
13976;DHT22;7062;49.792;9.946;2023-03-31T14:49:36;15.40;99.90
13976;DHT22;7062;49.792;9.946;2023-03-31T14:52:16;15.10;99.90
13976;DHT22;7062;49.792;9.946;2023-03-31T14:54:46;15.10;99.90
13976;DHT22;7062;49.792;9.946;2023-03-31T14:57:22;15.30;99.90
13976;DHT22;7062;49.792;9.946;2023-03-31T14:59:51;15.30;99.90
13976;DHT22;7062;49.792;9.946;2023-03-31T15:02:32;15.20;99.90
13976;DHT22;7062;49.792;9.946;2023-03-31T15:05:04;15.10;99.90
13976;DHT22;7062;49.792;9.946;2023-03-31T15:07:32;14.90;99.90
13976;DHT22;7062;49.792;9.946;2023-03-31T15:09:57;15.00;99.90
13976;DHT22;7062;49.792;9.946;2023-03-31T15:12:23;14.90;99.90
13976;DHT22;7062;49.792;9.946;2023-03-31T15:14:56;15.40;99.90
13976;DHT22;7062;49.792;9.946;2023-03-31T15:17:31;15.10;99.90
13976;DHT22;7062;49.792;9.946;2023-03-31T15:19:59;14.50;99.90
13976;DHT22;7062;49.792;9.946;2023-03-31T15:22:27;14.40;99.90
13976;DHT22;7062;49.792;9.946;2023-03-31T15:24:54;14.80;99.90
13976;DHT22;7062;49.792;9.946;2023-03-31T15:27:33;15.50;99.90
13976;DHT22;7062;49.792;9.946;2023-03-31T15:30:05;15.20;99.90
13976;DHT22;7062;49.792;9.946;2023-03-31T15:32:34;16.20;99.90
13976;DHT22;7062;49.792;9.946;2023-03-31T15:35:02;17.60;99.90
13976;DHT22;7062;49.792;9.946;2023-03-31T15:37:42;18.30;99.90
13976;DHT22;7062;49.792;9.946;2023-03-31T15:42:44;18.80;99.90
13976;DHT22;7062;49.792;9.946;2023-03-31T15:47:50;18.80;99.90
13976;DHT22;7062;49.792;9.946;2023-03-31T15:50:17;18.60;99.90
13976;DHT22;7062;49.792;9.946;2023-03-31T15:52:47;18.50;99.90
13976;DHT22;7062;49.792;9.946;2023-03-31T15:57:49;17.80;99.90
13976;DHT22;7062;49.792;9.946;2023-03-31T16:03:04;16.60;99.90
13976;DHT22;7062;49.792;9.946;2023-03-31T16:05:41;15.70;99.90
13976;DHT22;7062;49.792;9.946;2023-03-31T16:08:16;14.90;99.90
13976;DHT22;7062;49.792;9.946;2023-03-31T16:10:43;14.40;99.90
13976;DHT22;7062;49.792;9.946;2023-03-31T16:13:11;14.20;99.90
13976;DHT22;7062;49.792;9.946;2023-03-31T16:15:45;14.10;99.90
13976;DHT22;7062;49.792;9.946;2023-03-31T16:18:16;14.00;99.90
13976;DHT22;7062;49.792;9.946;2023-03-31T16:20:49;13.90;99.90
13976;DHT22;7062;49.792;9.946;2023-03-31T16:23:25;13.70;99.90
13976;DHT22;7062;49.792;9.946;2023-03-31T16:25:52;13.70;99.90
13976;DHT22;7062;49.792;9.946;2023-03-31T16:28:27;13.70;99.90
13976;DHT22;7062;49.792;9.946;2023-03-31T16:30:53;13.60;99.90
13976;DHT22;7062;49.792;9.946;2023-03-31T16:33:21;13.40;99.90
13976;DHT22;7062;49.792;9.946;2023-03-31T16:35:52;13.00;99.90
13976;DHT22;7062;49.792;9.946;2023-03-31T16:38:22;12.80;99.90
13976;DHT22;7062;49.792;9.946;2023-03-31T16:40:50;12.70;99.90
13976;DHT22;7062;49.792;9.946;2023-03-31T16:43:24;12.60;99.90
13976;DHT22;7062;49.792;9.946;2023-03-31T16:46:00;12.60;99.90
13976;DHT22;7062;49.792;9.946;2023-03-31T16:48:28;12.50;99.90
13976;DHT22;7062;49.792;9.946;2023-03-31T16:50:56;12.60;99.90
13976;DHT22;7062;49.792;9.946;2023-03-31T16:53:24;12.90;99.90
13976;DHT22;7062;49.792;9.946;2023-03-31T16:55:54;12.80;99.90
13976;DHT22;7062;49.792;9.946;2023-03-31T16:58:20;13.30;99.90
13976;DHT22;7062;49.792;9.946;2023-03-31T17:00:48;12.60;99.90
13976;DHT22;7062;49.792;9.946;2023-03-31T17:03:15;12.60;99.90
13976;DHT22;7062;49.792;9.946;2023-03-31T17:05:46;12.50;99.90
13976;DHT22;7062;49.792;9.946;2023-03-31T17:08:14;12.50;99.90
13976;DHT22;7062;49.792;9.946;2023-03-31T17:10:40;12.50;99.90
13976;DHT22;7062;49.792;9.946;2023-03-31T17:13:07;12.50;99.90
13976;DHT22;7062;49.792;9.946;2023-03-31T17:15:33;12.30;99.90
13976;DHT22;7062;49.792;9.946;2023-03-31T17:18:01;12.30;99.90
13976;DHT22;7062;49.792;9.946;2023-03-31T17:20:28;12.20;99.90
13976;DHT22;7062;49.792;9.946;2023-03-31T17:22:53;12.20;99.90
13976;DHT22;7062;49.792;9.946;2023-03-31T17:25:19;12.20;99.90
13976;DHT22;7062;49.792;9.946;2023-03-31T17:27:46;12.30;99.90
13976;DHT22;7062;49.792;9.946;2023-03-31T17:30:12;12.10;99.90
13976;DHT22;7062;49.792;9.946;2023-03-31T17:32:38;12.00;99.90
13976;DHT22;7062;49.792;9.946;2023-03-31T17:35:05;12.00;99.90
13976;DHT22;7062;49.792;9.946;2023-03-31T17:37:31;12.00;99.90
13976;DHT22;7062;49.792;9.946;2023-03-31T17:39:57;11.90;99.90
13976;DHT22;7062;49.792;9.946;2023-03-31T17:42:23;11.90;99.90
13976;DHT22;7062;49.792;9.946;2023-03-31T17:44:49;11.80;99.90
13976;DHT22;7062;49.792;9.946;2023-03-31T17:47:16;11.90;99.90
13976;DHT22;7062;49.792;9.946;2023-03-31T17:49:42;11.80;99.90
13976;DHT22;7062;49.792;9.946;2023-03-31T17:52:07;11.90;99.90
13976;DHT22;7062;49.792;9.946;2023-03-31T17:54:33;11.90;99.90
13976;DHT22;7062;49.792;9.946;2023-03-31T17:56:59;11.90;99.90
13976;DHT22;7062;49.792;9.946;2023-03-31T17:59:25;12.00;99.90
13976;DHT22;7062;49.792;9.946;2023-03-31T18:01:51;12.00;99.90
13976;DHT22;7062;49.792;9.946;2023-03-31T18:04:17;11.90;99.90
13976;DHT22;7062;49.792;9.946;2023-03-31T18:06:43;11.90;99.90
13976;DHT22;7062;49.792;9.946;2023-03-31T18:09:10;12.00;99.90
13976;DHT22;7062;49.792;9.946;2023-03-31T18:11:36;11.90;99.90
13976;DHT22;7062;49.792;9.946;2023-03-31T18:14:03;12.00;99.90
13976;DHT22;7062;49.792;9.946;2023-03-31T18:16:29;11.90;99.90
13976;DHT22;7062;49.792;9.946;2023-03-31T18:18:55;11.90;99.90
13976;DHT22;7062;49.792;9.946;2023-03-31T18:21:21;11.80;99.90
13976;DHT22;7062;49.792;9.946;2023-03-31T18:23:48;11.70;99.90
13976;DHT22;7062;49.792;9.946;2023-03-31T18:26:17;11.80;99.90
13976;DHT22;7062;49.792;9.946;2023-03-31T18:28:43;11.70;99.90
13976;DHT22;7062;49.792;9.946;2023-03-31T18:31:10;11.70;99.90
13976;DHT22;7062;49.792;9.946;2023-03-31T18:33:37;11.70;99.90
13976;DHT22;7062;49.792;9.946;2023-03-31T18:36:03;11.80;99.90
13976;DHT22;7062;49.792;9.946;2023-03-31T18:38:29;11.70;99.90
13976;DHT22;7062;49.792;9.946;2023-03-31T18:40:55;11.70;99.90
13976;DHT22;7062;49.792;9.946;2023-03-31T18:43:22;11.70;99.90
13976;DHT22;7062;49.792;9.946;2023-03-31T18:45:52;11.70;99.90
13976;DHT22;7062;49.792;9.946;2023-03-31T18:48:19;11.70;99.90
13976;DHT22;7062;49.792;9.946;2023-03-31T18:50:47;11.70;99.90
13976;DHT22;7062;49.792;9.946;2023-03-31T18:53:14;11.70;99.90
13976;DHT22;7062;49.792;9.946;2023-03-31T18:55:41;11.70;99.90